Time;durP1;ratioP1;P1;durP2;ratioP2;P2;SDS_P1;SDS_P2;PMS_P1;PMS_P2;Temp;Humidity;BMP_temperature;BMP_pressure;BME280_temperature;BME280_humidity;BME280_pressure;Samples;Min_cycle;Max_cycle;Signal;HPM_P1;HPM_P2
2023/12/26 00:00:27;;;;;;;0.20;0.20;;;10.20;99.90;;;;;;5077974;28;20641;-80
2023/12/26 00:02:55;;;;;;;0.47;0.47;;;10.30;99.90;;;;;;5068215;28;20314;-82
2023/12/26 00:05:22;;;;;;;0.30;0.30;;;10.40;99.90;;;;;;5074870;28;20633;-80
2023/12/26 00:07:49;;;;;;;0.30;0.20;;;10.40;99.90;;;;;;5066596;28;20206;-81
2023/12/26 00:10:16;;;;;;;0.30;0.30;;;10.40;99.90;;;;;;5058124;28;20233;-81
2023/12/26 00:12:43;;;;;;;0.20;0.10;;;10.40;99.90;;;;;;5066858;28;20227;-82
2023/12/26 00:15:10;;;;;;;0.30;0.10;;;10.50;99.90;;;;;;5061370;28;20206;-83
2023/12/26 00:17:37;;;;;;;0.27;0.10;;;10.50;99.90;;;;;;5074587;28;20263;-82
2023/12/26 00:20:07;;;;;;;0.00;0.00;;;10.60;99.90;;;;;;5066839;28;20238;-81
2023/12/26 00:22:35;;;;;;;0.07;0.07;;;10.60;99.90;;;;;;5066020;28;20222;-82
2023/12/26 00:25:03;;;;;;;0.00;0.00;;;10.60;99.90;;;;;;5064185;28;20207;-81
2023/12/26 00:27:29;;;;;;;0.67;0.10;;;10.70;99.90;;;;;;5068890;28;20202;-83
2023/12/26 00:29:56;;;;;;;1.30;0.60;;;10.70;99.90;;;;;;5075150;28;21949;-82
2023/12/26 00:32:23;;;;;;;0.00;0.00;;;10.80;99.90;;;;;;5071339;28;20306;-82
2023/12/26 00:34:50;;;;;;;0.10;0.10;;;10.80;99.90;;;;;;5071575;28;20249;-82
2023/12/26 00:37:19;;;;;;;0.00;0.00;;;10.80;99.90;;;;;;5073750;28;20737;-79
2023/12/26 00:39:46;;;;;;;0.20;0.10;;;10.90;99.90;;;;;;5074850;28;20245;-81
2023/12/26 00:42:12;;;;;;;0.30;0.13;;;10.90;99.90;;;;;;5072423;28;20262;-82
2023/12/26 00:44:40;;;;;;;0.57;0.20;;;10.90;99.90;;;;;;5072576;28;20230;-79
2023/12/26 00:47:07;;;;;;;0.53;0.10;;;10.90;99.90;;;;;;5069931;28;20302;-80
2023/12/26 00:49:33;;;;;;;0.20;0.10;;;11.00;99.90;;;;;;5078703;28;20241;-79
2023/12/26 00:52:00;;;;;;;0.10;0.10;;;11.00;99.90;;;;;;5072809;28;20246;-82
2023/12/26 00:54:28;;;;;;;0.10;0.00;;;11.00;99.90;;;;;;5073907;28;20234;-81
2023/12/26 00:56:55;;;;;;;0.00;0.00;;;11.00;99.90;;;;;;5080733;28;20236;-81
2023/12/26 00:59:22;;;;;;;0.00;0.00;;;11.10;99.90;;;;;;5066905;28;20225;-81
2023/12/26 01:01:49;;;;;;;0.03;0.00;;;11.10;99.90;;;;;;5074545;28;20257;-82
2023/12/26 01:04:16;;;;;;;0.10;0.10;;;11.20;99.90;;;;;;5076648;28;20270;-80
2023/12/26 01:06:43;;;;;;;0.00;0.00;;;11.30;99.90;;;;;;5078374;28;20248;-81
2023/12/26 01:09:11;;;;;;;0.70;0.17;;;11.30;99.90;;;;;;5066919;28;20285;-80
2023/12/26 01:11:39;;;;;;;0.00;0.00;;;11.30;99.90;;;;;;5074072;28;20250;-82
2023/12/26 01:14:06;;;;;;;0.00;0.00;;;11.30;99.90;;;;;;5073218;28;20248;-80
2023/12/26 01:16:33;;;;;;;0.10;0.10;;;11.30;99.90;;;;;;5074865;28;20632;-80
2023/12/26 01:19:00;;;;;;;0.10;0.10;;;11.30;99.90;;;;;;5071291;28;20248;-81
2023/12/26 01:21:27;;;;;;;0.20;0.20;;;11.40;99.90;;;;;;5062654;28;20241;-82
2023/12/26 01:23:55;;;;;;;0.10;0.10;;;11.30;99.90;;;;;;5061828;28;20223;-80
2023/12/26 01:26:23;;;;;;;0.10;0.10;;;11.20;99.90;;;;;;5078141;28;20198;-79
2023/12/26 01:28:51;;;;;;;0.33;0.10;;;11.30;99.90;;;;;;5075968;28;20210;-80
2023/12/26 01:31:18;;;;;;;0.17;0.10;;;11.30;99.90;;;;;;5066957;28;20276;-81
2023/12/26 01:33:45;;;;;;;1.13;0.20;;;11.30;99.90;;;;;;5068828;28;20237;-83
2023/12/26 01:36:12;;;;;;;2.10;0.10;;;11.30;99.90;;;;;;5074802;28;20234;-81
2023/12/26 01:38:38;;;;;;;0.03;0.03;;;11.30;99.90;;;;;;5077741;28;20289;-82
2023/12/26 01:41:05;;;;;;;0.37;0.23;;;11.40;99.90;;;;;;5072427;28;20202;-79
2023/12/26 01:43:32;;;;;;;0.10;0.10;;;11.40;99.90;;;;;;5061839;28;20226;-81
2023/12/26 01:46:02;;;;;;;0.10;0.10;;;11.40;99.90;;;;;;5078078;28;20198;-81
2023/12/26 01:48:30;;;;;;;0.20;0.20;;;11.40;99.90;;;;;;5075192;28;20252;-81
2023/12/26 01:50:57;;;;;;;0.20;0.20;;;11.20;99.90;;;;;;5073458;28;20234;-82
2023/12/26 01:53:25;;;;;;;0.10;0.10;;;11.30;99.90;;;;;;5061914;28;20206;-82
2023/12/26 01:55:52;;;;;;;0.10;0.10;;;11.40;99.90;;;;;;5066171;28;20606;-82
2023/12/26 01:58:19;;;;;;;0.10;0.10;;;11.30;99.90;;;;;;5077453;28;20233;-81
2023/12/26 02:00:46;;;;;;;0.10;0.10;;;11.40;99.90;;;;;;5068821;28;21612;-81
2023/12/26 02:03:15;;;;;;;0.10;0.10;;;11.30;99.90;;;;;;5077007;28;20260;-81
2023/12/26 02:05:45;;;;;;;0.03;0.03;;;11.30;99.90;;;;;;5070323;28;20206;-80
2023/12/26 02:08:13;;;;;;;0.10;0.10;;;11.30;99.90;;;;;;5072775;28;20814;-80
2023/12/26 02:10:40;;;;;;;0.00;0.00;;;11.20;99.90;;;;;;5071883;28;20716;-79
2023/12/26 02:13:07;;;;;;;0.57;0.13;;;11.20;99.90;;;;;;5069005;28;20218;-81
2023/12/26 02:15:34;;;;;;;0.13;0.13;;;11.20;99.90;;;;;;5073996;28;20237;-82
2023/12/26 02:18:01;;;;;;;0.00;0.00;;;11.30;99.90;;;;;;5066413;28;20199;-81
2023/12/26 02:20:30;;;;;;;0.00;0.00;;;11.30;99.90;;;;;;5072226;28;20615;-80
2023/12/26 02:22:56;;;;;;;0.10;0.00;;;11.20;99.90;;;;;;5067353;28;20223;-81
2023/12/26 02:25:25;;;;;;;0.07;0.00;;;11.20;99.90;;;;;;5060117;28;20202;-80
2023/12/26 02:27:52;;;;;;;0.00;0.00;;;11.20;99.90;;;;;;5079412;28;20692;-80
2023/12/26 02:30:20;;;;;;;0.00;0.00;;;11.30;99.90;;;;;;5069210;28;20289;-79
2023/12/26 02:32:49;;;;;;;0.47;0.20;;;11.20;99.90;;;;;;5077509;28;20250;-79
2023/12/26 02:35:16;;;;;;;1.90;0.10;;;11.20;99.90;;;;;;5065452;28;20713;-80
2023/12/26 02:37:43;;;;;;;0.10;0.10;;;11.10;99.90;;;;;;5066736;28;20207;-82
2023/12/26 02:40:11;;;;;;;0.10;0.10;;;11.10;99.90;;;;;;5075336;28;20198;-79
2023/12/26 02:42:39;;;;;;;0.20;0.20;;;11.10;99.90;;;;;;5061384;28;20309;-80
2023/12/26 02:45:08;;;;;;;0.03;0.03;;;11.20;99.90;;;;;;5062027;28;20638;-82
2023/12/26 02:47:34;;;;;;;0.20;0.20;;;11.20;99.90;;;;;;5061043;28;20234;-83
2023/12/26 02:50:01;;;;;;;0.33;0.20;;;11.10;99.90;;;;;;5072771;28;20297;-82
2023/12/26 02:52:28;;;;;;;0.20;0.20;;;11.10;99.90;;;;;;5075481;28;20222;-81
2023/12/26 02:54:55;;;;;;;0.67;0.20;;;11.20;99.90;;;;;;5067992;28;20241;-83
2023/12/26 02:57:22;;;;;;;0.20;0.20;;;11.20;99.90;;;;;;5064929;28;20233;-82
2023/12/26 02:59:50;;;;;;;0.30;0.30;;;11.10;99.90;;;;;;5063382;28;20286;-81
2023/12/26 03:02:19;;;;;;;0.13;0.13;;;11.10;99.90;;;;;;5069480;28;20274;-82
2023/12/26 03:04:45;;;;;;;0.10;0.10;;;11.10;99.90;;;;;;5076387;28;20210;-81
2023/12/26 03:07:12;;;;;;;0.00;0.00;;;11.10;99.90;;;;;;5066252;28;20199;-81
2023/12/26 03:09:39;;;;;;;0.83;0.20;;;11.10;99.90;;;;;;5065616;28;20289;-80
2023/12/26 03:12:06;;;;;;;0.20;0.20;;;11.10;99.90;;;;;;5064363;28;20254;-81
2023/12/26 03:14:33;;;;;;;0.10;0.10;;;11.10;99.90;;;;;;5075412;28;20234;-80
2023/12/26 03:17:02;;;;;;;0.10;0.10;;;11.00;99.90;;;;;;5070431;28;20206;-81
2023/12/26 03:19:28;;;;;;;0.20;0.20;;;11.00;99.90;;;;;;5070284;28;20206;-81
2023/12/26 03:21:55;;;;;;;0.30;0.10;;;11.00;99.90;;;;;;5075894;28;20229;-79
2023/12/26 03:24:22;;;;;;;0.33;0.33;;;10.90;99.90;;;;;;5076961;28;20233;-81
2023/12/26 03:26:49;;;;;;;0.10;0.10;;;10.90;99.90;;;;;;5070142;28;20242;-82
2023/12/26 03:29:16;;;;;;;1.47;0.20;;;10.90;99.90;;;;;;5073642;28;20290;-81
2023/12/26 03:31:44;;;;;;;0.30;0.20;;;10.90;99.90;;;;;;5068031;28;20260;-82
2023/12/26 03:34:13;;;;;;;0.20;0.20;;;10.90;99.90;;;;;;5061660;28;20234;-82
2023/12/26 03:36:44;;;;;;;0.17;0.17;;;10.90;99.90;;;;;;5071651;28;20229;-81
2023/12/26 03:39:11;;;;;;;0.40;0.30;;;10.80;99.90;;;;;;5066861;28;20218;-82
2023/12/26 03:41:38;;;;;;;0.30;0.30;;;10.70;99.90;;;;;;5076709;28;20254;-81
2023/12/26 03:44:06;;;;;;;0.30;0.23;;;10.70;99.90;;;;;;5068971;28;20684;-80
2023/12/26 03:46:33;;;;;;;0.17;0.17;;;10.70;99.90;;;;;;5064938;28;20209;-80
2023/12/26 03:49:00;;;;;;;0.37;0.37;;;10.70;99.90;;;;;;5069823;28;20229;-80
2023/12/26 03:51:28;;;;;;;0.37;0.37;;;10.80;99.90;;;;;;5062701;28;20266;-80
2023/12/26 03:53:55;;;;;;;0.47;0.47;;;10.70;99.90;;;;;;5058435;28;20282;-80
2023/12/26 03:56:22;;;;;;;0.30;0.30;;;10.70;99.90;;;;;;5073120;28;20293;-81
2023/12/26 03:58:49;;;;;;;0.40;0.40;;;10.80;99.90;;;;;;5075722;28;20296;-80
2023/12/26 04:01:16;;;;;;;0.40;0.40;;;10.70;99.90;;;;;;5074644;28;20301;-80
2023/12/26 04:03:43;;;;;;;0.40;0.40;;;10.70;99.90;;;;;;5075584;28;20218;-80
2023/12/26 04:06:10;;;;;;;0.40;0.30;;;10.70;99.90;;;;;;5080977;28;20229;-80
2023/12/26 04:08:38;;;;;;;0.60;0.40;;;10.70;99.90;;;;;;5080781;28;20194;-79
2023/12/26 04:11:05;;;;;;;0.33;0.33;;;10.80;99.90;;;;;;5081149;28;20281;-79
2023/12/26 04:13:32;;;;;;;0.47;0.47;;;11.00;99.90;;;;;;5079963;28;20615;-79
2023/12/26 04:15:59;;;;;;;0.53;0.30;;;11.00;99.90;;;;;;5079725;28;20274;-81
2023/12/26 04:18:26;;;;;;;0.40;0.40;;;10.90;99.90;;;;;;5080046;28;20194;-80
2023/12/26 04:20:53;;;;;;;0.30;0.30;;;10.80;99.90;;;;;;5079824;28;20668;-81
2023/12/26 04:23:20;;;;;;;0.30;0.30;;;11.00;99.90;;;;;;5078293;28;20234;-81
2023/12/26 04:25:48;;;;;;;1.03;0.40;;;10.90;99.90;;;;;;5060284;28;20207;-81
2023/12/26 04:28:15;;;;;;;0.60;0.60;;;10.80;99.90;;;;;;5073603;28;20233;-79
2023/12/26 04:30:42;;;;;;;0.70;0.50;;;10.80;99.90;;;;;;5062019;28;20195;-80
2023/12/26 04:33:10;;;;;;;0.50;0.50;;;10.80;99.90;;;;;;5079564;28;20314;-80
2023/12/26 04:35:37;;;;;;;1.20;0.43;;;10.80;99.90;;;;;;5062261;28;20268;-80
2023/12/26 04:38:04;;;;;;;2.03;0.60;;;9.30;99.90;;;;;;5060581;28;20203;-80
2023/12/26 04:40:31;;;;;;;2.57;0.40;;;9.00;99.90;;;;;;5075355;28;20241;-80
2023/12/26 04:43:02;;;;;;;3.17;0.30;;;8.80;99.90;;;;;;5077169;28;20250;-80
2023/12/26 04:45:29;;;;;;;2.00;0.40;;;8.70;99.90;;;;;;5074580;28;20261;-82
2023/12/26 04:47:56;;;;;;;3.03;0.50;;;8.60;99.90;;;;;;5073475;28;20206;-80
2023/12/26 04:50:23;;;;;;;0.67;0.30;;;8.80;99.90;;;;;;5061769;28;20233;-80
2023/12/26 04:52:49;;;;;;;1.90;0.40;;;8.80;99.90;;;;;;5065589;28;20242;-80
2023/12/26 04:55:16;;;;;;;0.50;0.33;;;8.90;99.90;;;;;;5070026;28;20234;-78
2023/12/26 04:57:43;;;;;;;1.20;0.53;;;9.00;99.90;;;;;;5071422;28;20745;-79
2023/12/26 05:00:13;;;;;;;0.50;0.40;;;9.10;99.90;;;;;;5063498;28;20271;-80
2023/12/26 05:02:40;;;;;;;2.60;0.60;;;9.10;99.90;;;;;;5065089;28;20266;-81
2023/12/26 05:05:08;;;;;;;4.47;0.67;;;9.10;99.90;;;;;;5075765;28;20249;-82
2023/12/26 05:07:35;;;;;;;2.93;0.90;;;9.10;99.90;;;;;;5076579;28;20199;-82
2023/12/26 05:10:02;;;;;;;1.73;0.80;;;9.20;99.90;;;;;;5062462;28;20226;-80
2023/12/26 05:12:29;;;;;;;4.07;1.00;;;9.20;99.90;;;;;;5075225;28;20260;-80
2023/12/26 05:14:56;;;;;;;4.00;1.43;;;9.30;99.90;;;;;;5078647;28;20642;-80
2023/12/26 05:17:24;;;;;;;1.83;1.00;;;9.30;99.90;;;;;;5076704;28;20285;-80
2023/12/26 05:19:51;;;;;;;3.23;1.40;;;9.20;99.90;;;;;;5076090;28;20206;-81
2023/12/26 05:22:18;;;;;;;2.47;0.80;;;9.30;99.90;;;;;;5071132;28;20222;-79
2023/12/26 05:24:45;;;;;;;1.90;1.20;;;9.30;99.90;;;;;;5075576;28;20257;-81
2023/12/26 05:27:12;;;;;;;2.73;0.93;;;9.30;99.90;;;;;;5075822;28;20627;-79
2023/12/26 05:29:39;;;;;;;2.53;0.83;;;9.30;99.90;;;;;;5078221;28;20210;-79
2023/12/26 05:32:07;;;;;;;2.40;0.97;;;9.30;99.90;;;;;;5057639;28;20262;-81
2023/12/26 05:34:35;;;;;;;2.67;0.80;;;9.30;99.90;;;;;;5072214;28;20719;-79
2023/12/26 05:37:02;;;;;;;1.70;0.80;;;9.30;99.90;;;;;;5079113;28;20226;-78
2023/12/26 05:39:29;;;;;;;1.80;0.90;;;9.30;1.00;;;;;;5078867;28;20238;-80
2023/12/26 05:41:56;;;;;;;3.50;0.77;;;9.40;1.00;;;;;;5076723;28;20263;-80
2023/12/26 05:44:22;;;;;;;2.47;0.50;;;9.30;1.00;;;;;;5060851;28;20257;-80
2023/12/26 05:46:49;;;;;;;3.10;0.97;;;9.30;1.00;;;;;;5068039;28;20302;-80
2023/12/26 05:49:16;;;;;;;1.57;0.73;;;9.40;1.00;;;;;;5059230;28;20227;-80
2023/12/26 05:51:44;;;;;;;1.93;0.80;;;9.40;1.00;;;;;;5065285;28;20321;-79
2023/12/26 05:54:11;;;;;;;1.80;0.77;;;9.20;1.00;;;;;;5067444;28;20230;-78
2023/12/26 05:56:38;;;;;;;2.30;0.60;;;9.30;1.00;;;;;;5071216;28;20234;-79
2023/12/26 05:59:05;;;;;;;3.47;0.80;;;9.30;99.90;;;;;;5078496;28;20237;-78
2023/12/26 06:01:32;;;;;;;2.80;0.93;;;9.40;1.00;;;;;;5071454;28;20222;-80
2023/12/26 06:03:59;;;;;;;2.13;0.87;;;9.40;1.00;;;;;;5072641;28;20683;-78
2023/12/26 06:06:26;;;;;;;1.23;1.13;;;9.30;1.00;;;;;;5076020;28;20202;-78
2023/12/26 06:08:54;;;;;;;2.60;1.00;;;9.30;99.90;;;;;;5060918;28;20239;-79
2023/12/26 06:11:21;;;;;;;2.90;0.90;;;9.20;1.00;;;;;;5069612;28;20257;-78
2023/12/26 06:13:48;;;;;;;2.77;0.80;;;9.20;1.00;;;;;;5072635;28;20566;-77
2023/12/26 06:16:15;;;;;;;3.17;0.87;;;9.20;1.00;;;;;;5074523;28;20225;-78
2023/12/26 06:18:41;;;;;;;3.17;0.97;;;9.20;1.00;;;;;;5074567;28;20207;-77
2023/12/26 06:21:08;;;;;;;1.50;0.90;;;9.20;1.00;;;;;;5079498;28;20194;-79
2023/12/26 06:23:35;;;;;;;1.20;0.67;;;9.30;1.00;;;;;;5061961;28;20203;-80
2023/12/26 06:26:04;;;;;;;1.10;0.80;;;9.20;1.00;;;;;;5076642;28;20230;-79
2023/12/26 06:28:31;;;;;;;2.53;0.97;;;9.30;1.00;;;;;;5078599;28;20268;-79
2023/12/26 06:30:57;;;;;;;1.73;0.57;;;9.30;1.00;;;;;;5072960;28;20225;-79
2023/12/26 06:33:24;;;;;;;2.93;1.37;;;9.30;1.00;;;;;;5075727;28;20206;-79
2023/12/26 06:35:51;;;;;;;3.23;0.70;;;9.20;31.20;;;;;;5075681;28;20256;-79
2023/12/26 06:38:18;;;;;;;4.10;1.00;;;9.20;99.90;;;;;;5062562;28;20884;-79
2023/12/26 06:40:45;;;;;;;2.33;0.67;;;9.20;99.90;;;;;;5078541;28;20237;-79
2023/12/26 06:43:15;;;;;;;1.17;0.60;;;9.40;1.00;;;;;;5078304;28;20719;-80
2023/12/26 06:45:42;;;;;;;3.13;0.90;;;9.30;99.90;;;;;;5080231;28;20222;-78
2023/12/26 06:48:08;;;;;;;1.23;0.90;;;9.20;1.00;;;;;;5078913;28;20229;-79
2023/12/26 06:50:35;;;;;;;2.40;1.13;;;9.40;99.90;;;;;;5071927;28;20246;-80
2023/12/26 06:53:02;;;;;;;4.10;1.17;;;9.40;99.90;;;;;;5076007;28;20680;-78
2023/12/26 06:55:30;;;;;;;2.00;0.97;;;9.50;1.00;;;;;;5077295;28;20202;-78
2023/12/26 06:57:57;;;;;;;1.60;0.77;;;9.60;1.00;;;;;;5063011;28;20257;-80
2023/12/26 07:00:25;;;;;;;6.20;1.10;;;9.60;1.00;;;;;;5070594;28;20625;-78
2023/12/26 07:02:51;;;;;;;1.43;0.73;;;9.60;1.00;;;;;;5081018;28;20222;-80
2023/12/26 07:05:18;;;;;;;1.70;0.73;;;9.50;1.00;;;;;;5059819;28;20226;-76
2023/12/26 07:07:45;;;;;;;3.33;1.00;;;9.40;1.00;;;;;;5074382;28;20657;-77
2023/12/26 07:10:12;;;;;;;4.33;0.80;;;9.20;1.00;;;;;;5063405;28;20666;-77
2023/12/26 07:12:39;;;;;;;1.17;0.63;;;9.10;1.00;;;;;;5064914;28;20312;-78
2023/12/26 07:15:06;;;;;;;3.30;1.00;;;9.10;99.90;;;;;;5079553;28;20232;-80
2023/12/26 07:17:35;;;;;;;1.03;0.60;;;9.20;1.00;;;;;;5060326;28;20237;-80
2023/12/26 07:20:02;;;;;;;3.13;0.90;;;9.20;1.00;;;;;;5060152;28;20191;-77
2023/12/26 07:22:29;;;;;;;0.97;0.50;;;9.10;1.00;;;;;;5063016;28;20252;-79
2023/12/26 07:24:56;;;;;;;4.83;1.17;;;9.10;99.90;;;;;;5078482;28;20260;-80
2023/12/26 07:27:23;;;;;;;6.80;1.70;;;8.90;1.00;;;;;;5079507;28;20237;-78
2023/12/26 07:29:49;;;;;;;2.77;0.63;;;8.90;1.00;;;;;;5079630;28;20300;-79
2023/12/26 07:32:19;;;;;;;5.33;0.80;;;8.90;1.00;;;;;;5077558;28;20260;-77
2023/12/26 07:34:48;;;;;;;7.13;1.30;;;8.70;1.00;;;;;;5075955;28;20206;-79
2023/12/26 07:37:14;;;;;;;3.87;1.03;;;8.60;1.00;;;;;;5075041;28;20208;-78
2023/12/26 07:39:41;;;;;;;5.40;1.47;;;8.50;1.00;;;;;;5081532;28;20202;-81
2023/12/26 07:42:09;;;;;;;4.87;0.93;;;8.50;1.00;;;;;;5082936;28;20225;-80
2023/12/26 07:44:36;;;;;;;5.90;1.53;;;8.50;99.90;;;;;;5084270;28;20214;-79
2023/12/26 07:47:03;;;;;;;4.63;1.20;;;8.40;1.00;;;;;;5081711;28;20205;-79
2023/12/26 07:49:29;;;;;;;6.37;1.20;;;8.40;99.90;;;;;;5062314;28;20288;-81
2023/12/26 07:51:58;;;;;;;6.07;1.10;;;8.30;99.90;;;;;;5063190;28;20259;-80
2023/12/26 07:54:25;;;;;;;5.97;0.83;;;8.40;99.90;;;;;;5083681;28;20194;-79
2023/12/26 07:56:52;;;;;;;6.60;1.53;;;8.30;99.90;;;;;;5081777;28;20225;-78
2023/12/26 07:59:18;;;;;;;3.50;1.20;;;8.50;7.20;;;;;;5082590;28;20234;-80
2023/12/26 08:01:45;;;;;;;8.53;1.83;;;8.40;1.00;;;;;;5082887;28;20234;-80
2023/12/26 08:04:12;;;;;;;7.63;1.50;;;8.20;99.90;;;;;;5083605;28;20676;-82
2023/12/26 08:06:39;;;;;;;2.93;1.13;;;8.20;36.70;;;;;;5063238;28;20645;-81
2023/12/26 08:09:08;;;;;;;2.23;0.80;;;8.20;2.80;;;;;;5069880;28;20230;-80
2023/12/26 08:11:36;;;;;;;6.30;1.97;;;8.30;1.00;;;;;;5082980;28;20276;-81
2023/12/26 08:14:03;;;;;;;6.70;1.50;;;8.30;1.00;;;;;;5083818;28;20202;-81
2023/12/26 08:16:30;;;;;;;6.90;1.27;;;8.20;1.00;;;;;;5083033;28;20634;-79
2023/12/26 08:18:57;;;;;;;3.30;1.00;;;8.30;1.00;;;;;;5083553;28;20230;-80
2023/12/26 08:21:24;;;;;;;7.03;1.30;;;8.30;1.00;;;;;;5082512;28;20280;-81
2023/12/26 08:23:51;;;;;;;3.93;0.90;;;8.30;1.00;;;;;;5078461;28;20261;-81
2023/12/26 08:26:19;;;;;;;6.33;1.13;;;8.20;52.60;;;;;;5082776;28;20257;-80
2023/12/26 08:28:47;;;;;;;5.63;1.03;;;8.20;55.60;;;;;;5073184;28;20738;-80
2023/12/26 08:31:15;;;;;;;5.90;1.20;;;8.30;99.90;;;;;;5063378;28;20225;-81
2023/12/26 08:33:42;;;;;;;4.47;1.17;;;8.20;99.90;;;;;;5068499;28;20199;-79
2023/12/26 08:36:09;;;;;;;6.10;1.00;;;8.30;69.90;;;;;;5077500;28;20199;-80
2023/12/26 08:38:36;;;;;;;5.70;1.40;;;8.50;1.00;;;;;;5069702;28;20203;-81
2023/12/26 08:41:05;;;;;;;4.00;1.23;;;8.60;1.00;;;;;;5076335;28;20218;-79
2023/12/26 08:43:34;;;;;;;6.17;1.50;;;8.70;1.00;;;;;;5069029;28;20219;-82
2023/12/26 08:46:01;;;;;;;14.87;1.60;;;8.70;1.00;;;;;;5076206;28;20222;-83
2023/12/26 08:48:27;;;;;;;7.33;1.30;;;8.70;1.00;;;;;;5079320;28;20550;-79
2023/12/26 08:50:54;;;;;;;6.73;1.50;;;8.70;1.00;;;;;;5078329;28;20272;-81
2023/12/26 08:53:21;;;;;;;3.07;1.23;;;8.80;1.00;;;;;;5075514;28;20343;-83
2023/12/26 08:55:48;;;;;;;8.00;2.20;;;8.90;1.00;;;;;;5070332;28;20207;-79
2023/12/26 08:58:15;;;;;;;4.43;1.43;;;8.90;1.00;;;;;;5076042;28;20232;-80
2023/12/26 09:00:45;;;;;;;6.43;1.83;;;8.80;50.20;;;;;;5072336;28;20283;-81
2023/12/26 09:03:12;;;;;;;6.83;1.87;;;8.90;99.90;;;;;;5062137;28;20659;-80
2023/12/26 09:05:40;;;;;;;3.47;1.53;;;8.80;99.90;;;;;;5064786;28;20237;-81
2023/12/26 09:08:07;;;;;;;4.57;1.27;;;9.00;99.90;;;;;;5061650;28;20289;-82
2023/12/26 09:10:34;;;;;;;3.03;1.10;;;9.10;99.90;;;;;;5063284;28;20251;-80
2023/12/26 09:13:01;;;;;;;2.30;1.20;;;9.20;99.90;;;;;;5066228;28;20227;-78
2023/12/26 09:15:28;;;;;;;2.60;1.13;;;9.30;99.90;;;;;;5076388;28;20298;-79
2023/12/26 09:17:56;;;;;;;3.00;1.83;;;9.30;99.90;;;;;;5077301;28;20677;-78
2023/12/26 09:20:23;;;;;;;4.17;0.90;;;9.30;99.90;;;;;;5070800;28;20194;-82
2023/12/26 09:22:51;;;;;;;4.57;1.20;;;9.20;1.00;;;;;;5072316;28;20248;-81
2023/12/26 09:25:18;;;;;;;5.60;0.90;;;9.10;1.00;;;;;;5071000;28;20254;-77
2023/12/26 09:27:45;;;;;;;2.10;1.27;;;9.00;1.00;;;;;;5078615;28;20229;-77
2023/12/26 09:30:13;;;;;;;4.77;1.23;;;9.10;1.00;;;;;;5076565;28;20222;-81
2023/12/26 09:32:40;;;;;;;8.07;1.30;;;9.10;1.00;;;;;;5062129;28;20231;-80
2023/12/26 09:35:09;;;;;;;3.87;1.23;;;9.10;1.00;;;;;;5071725;28;20187;-81
2023/12/26 09:37:38;;;;;;;4.73;1.47;;;9.10;1.00;;;;;;5068593;28;20226;-81
2023/12/26 09:40:06;;;;;;;4.67;1.47;;;9.10;1.00;;;;;;5063145;28;20207;-80
2023/12/26 09:42:33;;;;;;;5.07;1.13;;;9.20;1.00;;;;;;5070906;28;20246;-80
2023/12/26 09:45:02;;;;;;;6.47;1.50;;;9.30;99.90;;;;;;5080721;28;20214;-78
2023/12/26 09:47:31;;;;;;;4.63;1.20;;;9.50;1.00;;;;;;5078861;28;20574;-81
2023/12/26 09:49:58;;;;;;;3.33;1.27;;;9.50;99.90;;;;;;5078208;28;20210;-80
2023/12/26 09:52:31;;;;;;;2.97;0.90;;;9.50;99.90;;;;;;5066652;28;20246;-81
2023/12/26 09:54:59;;;;;;;5.17;1.00;;;9.50;99.90;;;;;;5077697;28;20568;-79
2023/12/26 09:57:26;;;;;;;5.83;1.00;;;9.50;99.90;;;;;;5070133;28;20575;-80
2023/12/26 09:59:54;;;;;;;1.93;0.80;;;9.50;99.90;;;;;;5077372;28;20226;-80
2023/12/26 10:02:21;;;;;;;3.40;1.00;;;9.50;99.90;;;;;;5080023;28;20253;-81
2023/12/26 10:04:48;;;;;;;1.87;1.00;;;9.50;99.90;;;;;;5081628;28;20198;-81
2023/12/26 10:07:17;;;;;;;7.00;1.23;;;9.50;99.90;;;;;;5071486;28;20199;-80
2023/12/26 10:09:46;;;;;;;3.83;1.30;;;9.50;99.90;;;;;;5081471;28;20207;-80
2023/12/26 10:12:12;;;;;;;3.73;1.33;;;9.50;99.90;;;;;;5066076;28;20251;-78
2023/12/26 10:14:40;;;;;;;6.17;1.70;;;9.40;99.90;;;;;;5081077;28;20226;-79
2023/12/26 10:17:08;;;;;;;4.93;1.30;;;9.40;99.90;;;;;;5080517;28;20206;-78
2023/12/26 10:19:35;;;;;;;9.70;2.80;;;9.40;1.00;;;;;;5063899;28;20228;-80
2023/12/26 10:22:03;;;;;;;8.97;2.63;;;9.40;99.90;;;;;;5075003;28;20360;-80
2023/12/26 10:24:30;;;;;;;3.83;1.57;;;9.40;99.90;;;;;;5072695;28;20233;-79
2023/12/26 10:27:00;;;;;;;4.73;1.07;;;9.30;1.00;;;;;;5073642;28;20224;-78
2023/12/26 10:29:27;;;;;;;2.57;1.03;;;9.30;99.90;;;;;;5077229;28;20225;-79
2023/12/26 10:31:54;;;;;;;4.53;1.50;;;9.40;99.90;;;;;;5079545;28;20261;-78
2023/12/26 10:34:21;;;;;;;5.23;1.30;;;9.40;99.90;;;;;;5078454;28;20202;-79
2023/12/26 10:36:49;;;;;;;5.00;1.23;;;9.50;99.90;;;;;;5078503;28;20256;-78
2023/12/26 10:39:17;;;;;;;6.73;1.60;;;9.50;99.90;;;;;;5078739;28;20230;-78
2023/12/26 10:41:46;;;;;;;4.13;1.20;;;9.50;99.90;;;;;;5070435;28;20285;-78
2023/12/26 10:44:15;;;;;;;7.70;1.60;;;9.50;99.90;;;;;;5078308;28;20241;-78
2023/12/26 10:46:43;;;;;;;3.87;0.97;;;9.60;99.90;;;;;;5070420;28;20941;-77
2023/12/26 10:49:12;;;;;;;6.20;1.57;;;9.70;99.90;;;;;;5080548;28;20206;-78
2023/12/26 10:51:43;;;;;;;3.80;1.17;;;9.80;99.90;;;;;;5065637;28;20238;-78
2023/12/26 10:54:19;;;;;;;9.27;2.80;;;9.80;99.90;;;;;;5065873;28;20256;-78
2023/12/26 10:56:48;;;;;;;5.33;1.17;;;9.80;99.90;;;;;;5077471;28;20198;-78
2023/12/26 13:51:28;;;;;;;5.53;1.10;;;9.50;1.00;;;;;;5065038;28;20217;-79
2023/12/26 13:53:55;;;;;;;5.83;1.17;;;9.50;1.00;;;;;;5085163;28;20194;-79
2023/12/26 13:56:21;;;;;;;8.53;1.67;;;9.50;1.00;;;;;;5066025;28;20874;-80
2023/12/26 13:58:48;;;;;;;4.67;1.80;;;9.50;1.00;;;;;;5065054;28;20195;-82
2023/12/26 14:01:19;;;;;;;6.90;1.53;;;9.50;1.00;;;;;;5079212;28;20226;-79
2023/12/26 14:03:49;;;;;;;8.23;1.90;;;9.40;1.00;;;;;;5082265;28;20212;-79
2023/12/26 14:06:16;;;;;;;8.80;1.90;;;9.40;1.00;;;;;;5080991;28;20679;-81
2023/12/26 14:08:44;;;;;;;5.03;1.40;;;9.30;1.00;;;;;;5081024;28;20194;-80
2023/12/26 14:11:11;;;;;;;9.37;1.70;;;9.40;1.00;;;;;;5082366;28;20202;-79
2023/12/26 14:13:38;;;;;;;6.70;1.70;;;9.40;1.00;;;;;;5082037;28;20202;-79
2023/12/26 14:16:06;;;;;;;7.80;1.77;;;9.40;1.00;;;;;;5070913;28;20226;-79
2023/12/26 14:18:33;;;;;;;6.87;1.83;;;9.40;1.00;;;;;;5062927;28;20206;-79
2023/12/26 14:21:00;;;;;;;8.90;1.70;;;9.40;1.00;;;;;;5062767;28;20203;-79
2023/12/26 14:23:28;;;;;;;8.47;1.70;;;9.40;1.00;;;;;;5064800;28;20210;-80
2023/12/26 14:25:57;;;;;;;6.53;1.60;;;9.40;1.00;;;;;;5082233;28;20284;-80
2023/12/26 14:28:24;;;;;;;7.07;1.60;;;9.30;1.00;;;;;;5082260;28;20284;-80
2023/12/26 14:30:51;;;;;;;5.07;2.00;;;9.30;1.00;;;;;;5080831;28;20209;-80
2023/12/26 14:33:20;;;;;;;9.17;2.20;;;9.30;1.00;;;;;;5082219;28;20260;-80
2023/12/26 14:35:48;;;;;;;7.80;1.83;;;9.30;1.00;;;;;;5066498;28;20203;-80
2023/12/26 14:38:15;;;;;;;7.37;1.73;;;9.20;1.00;;;;;;5070672;28;20308;-79
2023/12/26 14:40:42;;;;;;;9.83;1.60;;;9.20;1.00;;;;;;5074645;28;20202;-80
2023/12/26 14:43:10;;;;;;;7.17;1.57;;;9.20;1.00;;;;;;5081948;28;20230;-79
2023/12/26 14:45:37;;;;;;;9.70;2.57;;;9.20;1.00;;;;;;5082634;28;20579;-80
2023/12/26 14:48:05;;;;;;;11.57;2.53;;;9.10;1.00;;;;;;5066127;28;20195;-80
2023/12/26 14:50:32;;;;;;;6.20;1.90;;;8.90;99.90;;;;;;5081085;28;20231;-80
2023/12/26 14:52:59;;;;;;;7.77;1.90;;;8.80;99.90;;;;;;5076431;28;20229;-81
2023/12/26 14:55:27;;;;;;;9.33;1.90;;;8.70;1.00;;;;;;5072544;28;20573;-79
2023/12/26 14:57:54;;;;;;;11.30;2.37;;;8.60;1.00;;;;;;5077093;28;20210;-80
2023/12/26 15:00:23;;;;;;;5.40;1.70;;;8.60;1.00;;;;;;5073174;28;20206;-79
2023/12/26 15:02:53;;;;;;;7.97;1.90;;;8.60;1.00;;;;;;5073507;28;20292;-80
2023/12/26 15:05:19;;;;;;;7.23;2.07;;;8.70;99.90;;;;;;5081518;28;20207;-79
2023/12/26 15:07:46;;;;;;;11.40;2.53;;;8.70;99.90;;;;;;5078013;28;20214;-78
2023/12/26 15:10:13;;;;;;;8.27;2.07;;;8.80;99.90;;;;;;5081679;28;20202;-78
2023/12/26 15:12:40;;;;;;;6.33;1.77;;;8.90;99.90;;;;;;5084448;28;20229;-79
2023/12/26 15:15:09;;;;;;;7.30;2.00;;;8.90;15.20;;;;;;5081753;28;20206;-80
2023/12/26 15:17:37;;;;;;;5.10;1.33;;;9.00;1.00;;;;;;5085065;28;20204;-79
2023/12/26 15:20:05;;;;;;;5.90;2.30;;;8.90;1.00;;;;;;5084287;28;20574;-79
2023/12/26 15:22:32;;;;;;;6.73;1.57;;;8.90;1.00;;;;;;5079840;28;20234;-81
2023/12/26 15:24:59;;;;;;;8.53;2.27;;;8.90;1.00;;;;;;5074222;28;20214;-79
2023/12/26 15:27:26;;;;;;;6.87;1.77;;;9.00;1.00;;;;;;5069641;28;20230;-82
2023/12/26 15:29:53;;;;;;;10.17;1.70;;;9.00;1.00;;;;;;5084615;28;20198;-79
2023/12/26 15:32:20;;;;;;;7.77;1.83;;;8.90;1.00;;;;;;5075101;28;20290;-80
2023/12/26 15:34:48;;;;;;;6.77;1.80;;;9.00;1.00;;;;;;5077035;28;20248;-83
2023/12/26 15:37:15;;;;;;;12.33;2.53;;;9.00;1.00;;;;;;5079562;28;20675;-81
2023/12/26 15:39:42;;;;;;;6.80;1.70;;;9.00;1.00;;;;;;5082106;28;20561;-80
2023/12/26 15:42:09;;;;;;;7.93;2.30;;;9.00;1.00;;;;;;5082451;28;20266;-81
2023/12/26 15:44:38;;;;;;;7.53;1.90;;;9.00;1.00;;;;;;5081500;28;20206;-81
2023/12/26 15:47:05;;;;;;;4.53;1.43;;;9.00;1.00;;;;;;5083249;28;20285;-80
2023/12/26 15:49:32;;;;;;;7.27;2.00;;;8.90;1.00;;;;;;5069391;28;20228;-80